Amherst, Maine
Current Conditions -  °F | °C
As of 1:15 PM on Thursday 18 Dec 2014 (Local Time) from KBHB Reporting Station
Overcast Overcast  
Wind Chill: 27°   Ceiling: 1200
Heat Index: 34°   Visibility: 3mi
Dew Point: 34°   Wind: 8mph
Humidity: 100%   Direction: 310°NW
Pressure: 29.59"   Gusts: 16mph
Location:  44.6651°N, 68.3944°W
Report Text: KBHB 181815Z AUTO 31007G14KT 3SM BKN012 OVC018 01/01 A2959 RMK AO1
Loading
Personal Weather Stations






























Interactive Weather Map New forecast layout! Learn more

10-Day Weather Forecast

Advertisements
Track Severe Weather on mobile